Time;durP1;ratioP1;P1;durP2;ratioP2;P2;SDS_P1;SDS_P2;PMS_P1;PMS_P2;Temp;Humidity;BMP_temperature;BMP_pressure;BME280_temperature;BME280_humidity;BME280_pressure;Samples;Min_cycle;Max_cycle;Signal;HPM_P1;HPM_P2
2022/08/08 00:01:27;;;;;;;3.63;1.25;;;;;;;-144.47;37.42;53126.22;5058950;28;20083;-67
2022/08/08 00:03:58;;;;;;;5.00;1.35;;;;;;;-144.47;37.34;53102.38;5057644;28;20020;-67
2022/08/08 00:06:51;;;;;;;6.15;1.48;;;;;;;-144.47;37.02;53112.31;5066634;28;20029;-67
2022/08/08 00:09:38;;;;;;;2.88;1.30;;;;;;;-144.47;37.23;53076.56;5032783;28;20029;-69
2022/08/08 00:12:07;;;;;;;6.57;1.15;;;;;;;-144.47;37.22;53068.63;5036253;28;20029;-71
2022/08/08 00:14:56;;;;;;;4.65;1.20;;;;;;;-144.47;37.20;53102.38;5053932;28;20527;-70
2022/08/08 00:17:25;;;;;;;20.35;1.50;;;;;;;-144.47;37.40;53062.66;5056833;28;20108;-71
2022/08/08 00:19:59;;;;;;;;;;;;;;;-144.47;37.52;53146.09;5059221;28;20091;-71
2022/08/08 00:22:39;;;;;;;2.13;1.08;;;;;;;-144.47;37.46;53150.06;5043304;28;20348;-69
2022/08/08 00:25:09;;;;;;;5.30;1.13;;;;;;;-144.47;37.63;53078.53;5061319;28;20079;-68
2022/08/08 00:27:37;;;;;;;12.60;1.48;;;;;;;-144.47;37.65;53086.50;5049071;28;20017;-71
2022/08/08 00:30:11;;;;;;;2.58;1.13;;;;;;;-144.47;37.65;53086.50;5061860;28;20039;-70
2022/08/08 00:32:57;;;;;;;3.85;1.42;;;;;;;-144.47;37.82;53082.53;5057912;28;20044;-71
2022/08/08 00:35:56;;;;;;;4.25;1.25;;;;;;;-144.47;37.88;53120.25;5057989;28;20120;-69
2022/08/08 00:38:33;;;;;;;1.88;0.93;;;;;;;-144.47;38.04;53108.34;5055234;28;20440;-70
2022/08/08 00:41:17;;;;;;;7.70;1.60;;;;;;;-144.47;37.90;53110.31;5060626;28;20074;-72
2022/08/08 00:43:42;;;;;;;1.80;0.90;;;;;;;-144.47;38.06;53082.53;5055921;28;20094;-70
2022/08/08 00:46:29;;;;;;;2.90;1.20;;;;;;;-144.47;38.13;53080.53;5060738;28;20470;-72
2022/08/08 00:49:12;;;;;;;2.28;1.23;;;;;;;-144.47;38.25;53098.41;5066359;28;20358;-70
2022/08/08 00:51:43;;;;;;;3.45;1.23;;;;;;;-144.47;38.20;53106.34;5073019;28;20455;-71
2022/08/08 00:54:27;;;;;;;2.78;1.25;;;;;;;-144.47;38.45;53114.31;5072918;28;20055;-70
2022/08/08 00:57:34;;;;;;;3.60;1.20;;;;;;;-144.47;38.56;53106.34;5072658;28;20013;-66
2022/08/08 01:00:07;;;;;;;5.00;2.00;;;;;;;-144.47;38.59;53108.34;5036346;28;20445;-69
2022/08/08 01:03:09;;;;;;;2.08;1.20;;;;;;;-144.47;38.77;53138.13;5079340;28;20023;-69
2022/08/08 01:06:22;;;;;;;2.33;1.40;;;;;;;-144.47;38.90;53102.38;5078047;28;20520;-68
2022/08/08 01:09:33;;;;;;;6.30;1.40;;;;;;;-144.47;38.96;53088.47;4976337;28;20027;-71
2022/08/08 01:12:15;;;;;;;3.90;1.20;;;;;;;-144.47;39.12;53110.31;5073211;28;20017;-71
2022/08/08 01:15:05;;;;;;;4.40;1.40;;;;;;;-144.47;39.23;53116.28;5079785;28;20065;-69
2022/08/08 01:17:42;;;;;;;4.55;1.48;;;;;;;-144.47;39.31;53126.22;5078125;28;20099;-70
2022/08/08 01:20:38;;;;;;;2.22;1.13;;;;;;;-144.47;39.24;53086.50;5066223;28;20036;-71
2022/08/08 01:23:12;;;;;;;2.22;1.27;;;;;;;-144.47;39.43;53106.34;5076125;28;20119;-68
2022/08/08 01:26:03;;;;;;;2.90;1.58;;;;;;;-144.47;39.47;53078.53;5073179;28;20119;-70
2022/08/08 01:28:31;;;;;;;8.57;1.50;;;;;;;-144.47;39.54;53076.56;5072173;28;20035;-71
2022/08/08 01:30:59;;;;;;;3.70;1.48;;;;;;;-144.47;39.74;53158.00;5073529;28;20020;-67
2022/08/08 01:33:57;;;;;;;3.08;1.52;;;;;;;-144.47;39.75;53084.50;5074027;28;20017;-70
2022/08/08 01:36:34;;;;;;;6.45;1.50;;;;;;;-144.47;39.83;53084.50;5061022;28;20091;-68
2022/08/08 01:39:42;;;;;;;6.57;1.75;;;;;;;-144.47;40.04;53144.09;5072082;28;20020;-70
2022/08/08 01:42:14;;;;;;;4.35;1.48;;;;;;;-144.47;40.18;53150.06;5072101;28;20509;-66
2022/08/08 01:45:13;;;;;;;4.90;1.25;;;;;;;-144.47;40.38;53148.06;5054510;28;20173;-67
2022/08/08 01:48:06;;;;;;;3.33;1.30;;;;;;;-144.47;40.59;53130.19;5090088;22;20040;-66
2022/08/08 01:50:34;;;;;;;3.60;1.48;;;;;;;-144.47;40.58;53084.50;5072320;28;20032;-66
2022/08/08 01:53:15;;;;;;;4.30;1.70;;;;;;;-144.47;40.56;53102.38;5071599;28;20020;-69
2022/08/08 01:55:58;;;;;;;3.17;1.40;;;;;;;-144.47;40.72;53106.34;5071865;28;20020;-69
2022/08/08 01:58:54;;;;;;;3.90;1.50;;;;;;;-144.47;40.65;53144.09;5070566;28;20090;-68
2022/08/08 02:02:05;;;;;;;8.23;2.03;;;;;;;-144.47;40.72;53124.22;5072186;28;20020;-67
2022/08/08 02:04:49;;;;;;;4.18;1.63;;;;;;;-144.47;40.68;53082.53;5044779;28;20059;-68
2022/08/08 02:07:50;;;;;;;5.05;1.45;;;;;;;-144.47;40.75;53112.31;5050392;28;20025;-68
2022/08/08 02:10:38;;;;;;;4.07;1.52;;;;;;;-144.47;40.84;53108.34;5042286;28;20021;-68
2022/08/08 02:13:15;;;;;;;4.47;1.43;;;;;;;-144.47;40.72;53114.31;5051682;28;20513;-66
2022/08/08 02:15:51;;;;;;;2.95;1.35;;;;;;;-144.47;40.96;53094.44;5051756;28;20021;-65
2022/08/08 02:18:23;;;;;;;3.58;1.40;;;;;;;-144.47;40.95;53094.44;5050261;28;20025;-68
2022/08/08 02:24:26;;;;;;;1.88;1.20;;;;;;;-144.47;41.09;53120.25;5051176;28;20036;-66
2022/08/08 02:27:02;;;;;;;11.48;2.22;;;;;;;-144.47;41.18;53100.41;5019907;28;20043;-69
2022/08/08 02:29:59;;;;;;;6.32;1.67;;;;;;;-144.47;41.29;53068.63;5051407;28;20017;-68
2022/08/08 02:32:56;;;;;;;3.17;1.42;;;;;;;-144.47;41.17;53114.31;5051122;28;20039;-69
2022/08/08 02:35:34;;;;;;;4.70;1.63;;;;;;;-144.47;41.16;53140.13;5045320;28;20060;-67
2022/08/08 02:38:37;;;;;;;4.72;1.80;;;;;;;-144.47;41.45;53104.38;5049804;28;20028;-69
2022/08/08 02:41:28;;;;;;;4.80;1.52;;;;;;;-144.47;41.66;53104.38;5051199;28;20036;-68
2022/08/08 02:44:08;;;;;;;3.95;1.50;;;;;;;-144.47;42.05;53100.41;5050917;28;20017;-69
2022/08/08 02:46:51;;;;;;;3.05;1.73;;;;;;;-144.47;42.17;53080.53;5050615;28;20526;-67
2022/08/08 02:49:54;;;;;;;6.43;1.90;;;;;;;-144.47;42.25;53120.25;5051055;28;20510;-68
2022/08/08 02:52:46;;;;;;;9.10;2.58;;;;;;;-144.47;42.42;53130.19;5050985;28;20029;-66
2022/08/08 02:55:14;;;;;;;6.22;1.50;;;;;;;-144.47;42.39;53106.34;5051228;28;20052;-68
2022/08/08 02:57:49;;;;;;;8.70;2.40;;;;;;;-144.47;42.72;53128.22;5050040;28;20021;-68
2022/08/08 03:00:40;;;;;;;8.63;1.90;;;;;;;-144.47;43.16;53116.28;5048937;28;20028;-65
2022/08/08 03:03:17;;;;;;;6.38;1.60;;;;;;;-144.47;42.88;53128.22;5021332;28;20429;-68
2022/08/08 03:06:18;;;;;;;8.15;1.67;;;;;;;-144.47;43.02;53140.13;5050958;28;20096;-68
2022/08/08 03:09:02;;;;;;;11.10;1.92;;;;;;;-144.47;43.24;53132.19;5007186;28;20057;-67
2022/08/08 03:12:01;;;;;;;3.05;1.60;;;;;;;-144.47;43.56;53118.28;5047277;28;20402;-66
2022/08/08 03:14:50;;;;;;;4.82;2.10;;;;;;;-144.47;43.60;53102.38;5032745;28;20486;-68
2022/08/08 03:17:18;;;;;;;5.90;2.55;;;;;;;-144.47;43.81;53122.25;5049720;28;20025;-66
2022/08/08 03:19:59;;;;;;;6.67;2.27;;;;;;;-144.47;43.73;53126.22;5050468;28;20016;-65
2022/08/08 03:22:25;;;;;;;9.93;2.28;;;;;;;-144.47;43.82;53124.22;5049753;28;20024;-66
2022/08/08 03:24:51;;;;;;;5.67;1.80;;;;;;;-144.47;43.95;53132.19;5050349;28;20021;-68
2022/08/08 03:27:27;;;;;;;9.25;2.15;;;;;;;-144.47;44.19;53152.03;5049517;28;20695;-65
2022/08/08 03:30:00;;;;;;;6.45;2.10;;;;;;;-144.47;44.19;53130.19;5050155;28;20534;-69
2022/08/08 03:35:10;;;;;;;22.83;6.85;;;;;;;-144.47;44.31;53114.31;5043341;28;20064;-67
2022/08/08 03:37:36;;;;;;;14.15;3.20;;;;;;;-144.47;44.61;53122.25;5049096;28;20052;-68
2022/08/08 03:40:04;;;;;;;5.85;2.08;;;;;;;-144.47;44.65;53138.13;5050521;28;20462;-68
2022/08/08 03:42:30;;;;;;;7.13;2.53;;;;;;;-144.47;44.54;53144.09;5032669;28;20095;-67
2022/08/08 03:44:55;;;;;;;7.13;2.33;;;;;;;-144.47;44.57;53122.25;5049912;28;20028;-67
2022/08/08 03:47:21;;;;;;;6.05;2.05;;;;;;;-144.47;44.50;53110.31;5048955;28;20094;-65
2022/08/08 03:49:48;;;;;;;11.00;2.38;;;;;;;-144.47;44.50;53138.13;5049763;28;20474;-69
2022/08/08 03:52:14;;;;;;;3.92;1.70;;;;;;;-144.47;44.59;53100.41;5049364;28;20013;-68
2022/08/08 03:54:44;;;;;;;3.15;1.55;;;;;;;-144.47;44.64;53160.00;5050420;28;20095;-67
2022/08/08 03:57:15;;;;;;;6.75;1.75;;;;;;;-144.47;44.75;53124.22;5049705;28;20028;-66
2022/08/08 03:59:40;;;;;;;7.82;2.15;;;;;;;-144.47;44.69;53142.09;5050291;28;20050;-69
2022/08/08 04:02:18;;;;;;;5.38;1.98;;;;;;;-144.47;44.59;53108.34;5050160;28;20102;-66
2022/08/08 04:04:45;;;;;;;4.78;1.80;;;;;;;-144.47;44.55;53161.97;5049865;28;20025;-67
2022/08/08 04:07:11;;;;;;;5.38;1.90;;;;;;;-144.47;44.66;53108.34;5048366;28;20040;-67
2022/08/08 04:09:37;;;;;;;6.05;2.20;;;;;;;-144.47;44.84;53122.25;5048552;28;20017;-69
2022/08/08 04:12:03;;;;;;;17.33;2.22;;;;;;;-144.47;44.79;53142.09;5050290;28;20021;-68
2022/08/08 04:14:29;;;;;;;5.40;1.60;;;;;;;-144.47;45.00;53124.22;5050064;28;20183;-66
2022/08/08 04:16:55;;;;;;;4.63;2.15;;;;;;;-144.47;45.06;53122.25;5051141;28;20017;-67
2022/08/08 04:19:20;;;;;;;8.90;2.92;;;;;;;-144.47;45.09;53150.06;5050119;28;20085;-67
2022/08/08 04:21:45;;;;;;;4.82;2.10;;;;;;;-144.47;44.87;53134.16;5050297;28;20024;-65
2022/08/08 04:24:11;;;;;;;6.65;2.05;;;;;;;-144.47;44.82;53150.06;5048903;28;20110;-67
2022/08/08 04:26:36;;;;;;;7.10;1.98;;;;;;;-144.47;44.62;53110.31;5041116;28;20021;-67
2022/08/08 04:29:02;;;;;;;6.28;2.42;;;;;;;-144.47;44.58;53156.00;5049023;28;20104;-67
2022/08/08 04:31:28;;;;;;;6.30;2.03;;;;;;;-144.47;44.63;53130.19;5049010;28;20021;-68
2022/08/08 04:33:53;;;;;;;3.95;2.00;;;;;;;-144.47;44.70;53148.06;5048864;28;20124;-66
2022/08/08 04:36:18;;;;;;;3.85;2.05;;;;;;;-144.47;44.66;53106.34;5049069;28;20369;-66
2022/08/08 04:38:43;;;;;;;7.60;1.77;;;;;;;-144.47;44.70;53122.25;5048072;28;20033;-68
2022/08/08 04:41:09;;;;;;;6.07;1.98;;;;;;;-144.47;44.83;53130.19;5049538;28;20031;-66
2022/08/08 04:43:34;;;;;;;2.95;1.77;;;;;;;-144.47;45.01;53142.09;5051306;28;20486;-65
2022/08/08 04:46:00;;;;;;;5.88;1.88;;;;;;;-144.47;44.86;53160.00;5049001;28;20024;-69
2022/08/08 04:48:26;;;;;;;10.05;3.80;;;;;;;-144.47;45.23;53150.06;5048683;28;20027;-65
2022/08/08 04:50:51;;;;;;;7.45;2.75;;;;;;;-144.47;45.54;53140.13;5049650;28;20057;-66
2022/08/08 04:53:16;;;;;;;5.18;2.13;;;;;;;-144.47;45.53;53118.28;5047333;28;20048;-68
2022/08/08 04:55:42;;;;;;;6.50;2.20;;;;;;;-144.47;45.72;53124.22;5049396;28;20028;-65
2022/08/08 04:58:12;;;;;;;8.18;2.03;;;;;;;-144.47;45.70;53158.00;5058845;28;20029;-67
2022/08/08 05:00:38;;;;;;;6.05;2.88;;;;;;;-144.47;46.02;53138.13;5049015;28;20024;-67
2022/08/08 05:03:03;;;;;;;4.90;2.22;;;;;;;-144.47;45.97;53112.31;5045180;28;20013;-64
2022/08/08 05:05:29;;;;;;;10.63;2.20;;;;;;;-144.47;45.92;53136.16;5055153;28;20063;-68
2022/08/08 05:07:55;;;;;;;6.65;2.20;;;;;;;-144.47;45.95;53154.03;5046951;28;20036;-64
2022/08/08 05:10:20;;;;;;;4.88;2.22;;;;;;;-144.47;45.95;53102.38;5036689;28;20363;-67
2022/08/08 05:12:45;;;;;;;6.35;2.40;;;;;;;-144.47;45.24;53102.38;5048997;28;20071;-66
2022/08/08 05:15:11;;;;;;;8.10;1.92;;;;;;;-144.47;44.66;53104.38;5048644;28;20021;-66
2022/08/08 05:17:36;;;;;;;5.72;1.95;;;;;;;-144.47;44.48;53118.28;5047143;28;20052;-71
2022/08/08 05:20:02;;;;;;;6.60;2.90;;;;;;;-144.47;44.30;53112.31;5048623;28;20440;-66
2022/08/08 05:22:28;;;;;;;8.95;2.90;;;;;;;-144.47;44.32;53175.88;5047615;28;20036;-69
2022/08/08 05:24:54;;;;;;;5.88;2.08;;;;;;;-144.47;44.16;53142.09;5048420;28;20017;-65
2022/08/08 05:27:19;;;;;;;5.47;2.10;;;;;;;-144.47;44.24;53122.25;5047893;28;20021;-68
2022/08/08 05:29:44;;;;;;;5.13;2.03;;;;;;;-144.47;44.16;53080.53;5048504;28;20021;-68
2022/08/08 05:32:10;;;;;;;11.95;2.65;;;;;;;-144.47;44.48;53094.44;5051449;28;20179;-70
2022/08/08 05:34:41;;;;;;;5.72;2.03;;;;;;;-144.47;44.25;53128.22;5051758;28;20540;-66
2022/08/08 05:37:07;;;;;;;6.32;2.20;;;;;;;-144.47;44.20;53090.47;5038296;28;20049;-66
2022/08/08 05:39:33;;;;;;;6.93;2.38;;;;;;;-144.47;44.33;53120.25;5059072;28;20020;-68
2022/08/08 05:41:59;;;;;;;6.53;2.38;;;;;;;-144.47;44.33;53126.22;5072979;28;20043;-65
2022/08/08 05:44:30;;;;;;;13.38;2.15;;;;;;;-144.47;44.27;53124.22;5045570;28;20029;-65
2022/08/08 05:46:57;;;;;;;7.47;2.25;;;;;;;-144.47;44.27;53118.28;5050135;28;20043;-66
2022/08/08 05:49:23;;;;;;;7.43;1.63;;;;;;;-144.47;44.04;53158.00;5051726;28;20031;-65
2022/08/08 05:51:49;;;;;;;9.23;2.22;;;;;;;-144.47;44.06;53114.31;5052492;28;20013;-65
2022/08/08 05:54:16;;;;;;;8.30;2.47;;;;;;;-144.47;44.11;53118.28;5046707;28;20608;-65
2022/08/08 05:56:43;;;;;;;7.15;2.03;;;;;;;-144.47;44.02;53124.22;5051406;28;20032;-67
2022/08/08 05:59:16;;;;;;;9.32;2.05;;;;;;;-144.47;43.94;53148.06;5060016;28;20470;-66
2022/08/08 06:01:42;;;;;;;7.88;2.28;;;;;;;-144.47;43.65;53098.41;5072220;28;20569;-67
2022/08/08 06:04:10;;;;;;;4.47;2.30;;;;;;;-144.47;43.85;53100.41;5064814;28;20083;-68
2022/08/08 06:06:41;;;;;;;6.37;2.20;;;;;;;-144.47;43.74;53118.28;5053603;28;20623;-64
2022/08/08 06:09:08;;;;;;;4.45;1.70;;;;;;;-144.47;43.79;53150.06;5054296;28;20670;-66
2022/08/08 06:11:34;;;;;;;5.28;2.10;;;;;;;-144.47;43.68;53106.34;5052067;28;20025;-66
2022/08/08 06:14:01;;;;;;;4.30;1.90;;;;;;;-144.47;43.75;53150.06;5052216;28;20104;-67
2022/08/08 06:16:27;;;;;;;4.35;1.90;;;;;;;-144.47;43.75;53110.31;5051221;28;20020;-64
2022/08/08 06:18:53;;;;;;;8.38;2.15;;;;;;;-144.47;43.37;53106.34;5048409;28;20132;-66
2022/08/08 06:21:20;;;;;;;6.10;1.80;;;;;;;-144.47;43.25;53110.31;5044556;28;20078;-66
2022/08/08 06:23:45;;;;;;;5.45;2.08;;;;;;;-144.47;43.09;53108.34;5048996;28;20029;-64
2022/08/08 06:26:12;;;;;;;5.45;1.83;;;;;;;-144.47;43.02;53146.09;5046561;28;20017;-65
2022/08/08 06:28:48;;;;;;;5.50;1.75;;;;;;;-144.47;43.13;53156.00;5050236;28;20028;-64
2022/08/08 06:31:18;;;;;;;5.93;2.20;;;;;;;-144.47;42.82;53110.31;5051411;28;20017;-67
2022/08/08 06:34:02;;;;;;;9.88;2.88;;;;;;;-144.47;42.59;53098.41;5052672;28;20025;-66
2022/08/08 06:36:34;;;;;;;4.10;1.80;;;;;;;-144.47;42.63;53128.22;5058287;28;20025;-69
2022/08/08 06:39:00;;;;;;;4.93;1.95;;;;;;;-144.47;42.52;53100.41;5055952;28;20028;-66
2022/08/08 06:41:26;;;;;;;8.27;2.00;;;;;;;-144.47;42.89;53128.22;5049350;28;20377;-68
2022/08/08 06:43:56;;;;;;;12.85;3.22;;;;;;;-144.47;42.22;53098.41;5047875;28;20029;-68
2022/08/08 06:46:21;;;;;;;11.32;2.13;;;;;;;-144.47;41.93;53068.63;5049828;28;20021;-68
2022/08/08 06:48:47;;;;;;;12.25;2.15;;;;;;;-144.47;42.17;53096.41;5049189;28;20043;-67
2022/08/08 06:51:13;;;;;;;7.97;2.55;;;;;;;-144.47;41.61;53132.19;5047034;28;20462;-69
2022/08/08 06:53:40;;;;;;;8.60;2.78;;;;;;;-144.47;41.26;53080.53;5045317;28;20041;-68
2022/08/08 06:56:07;;;;;;;4.72;1.90;;;;;;;-144.47;41.23;53106.34;5049270;28;20021;-67
2022/08/08 06:58:32;;;;;;;6.70;3.08;;;;;;;-144.47;41.43;53090.47;5048041;28;20355;-64
2022/08/08 07:01:00;;;;;;;5.97;1.95;;;;;;;-144.47;41.32;53114.31;5058822;28;20103;-68
2022/08/08 07:03:38;;;;;;;5.93;2.13;;;;;;;-144.47;41.36;53104.38;5044985;28;20976;-67
2022/08/08 07:06:09;;;;;;;10.43;2.10;;;;;;;-144.47;40.85;53084.50;5052013;28;20077;-66
2022/08/08 07:08:38;;;;;;;8.43;2.67;;;;;;;-144.47;40.88;53080.53;5068346;28;20044;-66
2022/08/08 07:11:05;;;;;;;8.93;2.08;;;;;;;-144.47;40.79;53066.63;5069482;28;20031;-66
2022/08/08 07:13:42;;;;;;;8.20;1.75;;;;;;;-144.47;40.62;53102.38;5054919;28;20020;-66
2022/08/08 07:16:33;;;;;;;14.57;2.10;;;;;;;-144.47;40.61;53066.63;5059078;28;20110;-65
2022/08/08 07:19:19;;;;;;;8.98;2.28;;;;;;;-144.47;40.38;53110.31;5019699;28;20037;-67
2022/08/08 07:22:05;;;;;;;12.85;2.22;;;;;;;-144.47;39.64;53072.59;5049968;28;20025;-68
2022/08/08 07:25:01;;;;;;;7.05;1.73;;;;;;;-144.47;39.38;53090.47;5036720;28;20025;-67
2022/08/08 07:27:35;;;;;;;13.05;2.50;;;;;;;-144.47;39.14;53118.28;5047803;28;20425;-65
2022/08/08 07:30:01;;;;;;;5.40;1.95;;;;;;;-144.47;39.00;53086.50;5061747;28;20390;-66
2022/08/08 07:32:27;;;;;;;5.28;2.20;;;;;;;-144.47;38.63;53074.56;5069657;28;20675;-64
2022/08/08 07:34:54;;;;;;;6.18;1.92;;;;;;;-144.47;38.39;53066.63;5041336;28;20037;-66
2022/08/08 07:37:22;;;;;;;8.25;2.17;;;;;;;-144.47;38.29;53086.50;5049288;28;20027;-65
2022/08/08 07:39:48;;;;;;;5.93;1.55;;;;;;;-144.47;38.06;53086.50;5069244;28;20012;-67
2022/08/08 07:42:16;;;;;;;6.70;1.80;;;;;;;-144.47;37.70;53092.44;5069282;28;20036;-65
2022/08/08 07:44:43;;;;;;;5.22;1.55;;;;;;;-144.47;37.72;53080.53;5069552;28;20067;-65
2022/08/08 07:47:08;;;;;;;4.30;1.70;;;;;;;-144.47;37.58;53052.72;5068714;28;20024;-66
2022/08/08 07:49:35;;;;;;;4.13;1.70;;;;;;;-144.47;37.60;53088.47;5078843;22;20040;-68
2022/08/08 07:52:01;;;;;;;2.75;1.30;;;;;;;-144.47;37.75;53066.63;5069006;28;20028;-66
2022/08/08 07:54:31;;;;;;;8.52;1.70;;;;;;;-144.47;37.61;53076.56;5067776;28;20055;-69
2022/08/08 07:57:09;;;;;;;4.38;1.55;;;;;;;-144.47;37.67;53080.53;5080698;28;20478;-69
2022/08/08 07:59:53;;;;;;;6.57;1.52;;;;;;;-144.47;37.67;53078.53;5069305;28;20032;-67
2022/08/08 08:02:22;;;;;;;7.30;1.85;;;;;;;-144.47;37.53;53048.75;5056284;28;20020;-66
2022/08/08 08:04:54;;;;;;;5.45;1.88;;;;;;;-144.47;37.46;53074.56;5064135;28;20058;-68
2022/08/08 08:07:21;;;;;;;3.38;1.45;;;;;;;-144.47;37.30;53094.44;5063862;28;20040;-66
2022/08/08 08:09:47;;;;;;;11.73;2.00;;;;;;;-144.47;37.42;53066.63;5066017;28;20029;-68
2022/08/08 08:12:15;;;;;;;13.15;1.73;;;;;;;-144.47;36.98;53036.84;5069589;28;20087;-69
2022/08/08 08:14:57;;;;;;;4.93;1.80;;;;;;;-144.47;36.68;53062.66;5068939;28;20023;-67
2022/08/08 08:17:24;;;;;;;6.68;1.50;;;;;;;-144.47;36.63;53034.84;5080104;28;20291;-67
2022/08/08 08:19:57;;;;;;;7.97;2.10;;;;;;;-144.47;36.70;53058.69;5069587;28;20556;-69
2022/08/08 08:22:22;;;;;;;6.35;1.55;;;;;;;-144.47;36.54;53022.94;5067968;28;20104;-67
2022/08/08 08:24:47;;;;;;;9.65;2.40;;;;;;;-144.47;36.33;53074.56;5051295;28;20123;-69
2022/08/08 08:27:13;;;;;;;11.80;1.70;;;;;;;-144.47;35.86;53070.59;5068957;28;20122;-67
2022/08/08 08:29:38;;;;;;;5.93;1.60;;;;;;;-144.47;36.24;53070.59;5069039;28;20017;-67
2022/08/08 08:32:04;;;;;;;11.30;1.70;;;;;;;-144.47;36.01;53034.84;5068348;28;20082;-68
2022/08/08 08:34:30;;;;;;;5.05;1.83;;;;;;;-144.47;35.54;53050.75;5065731;28;20031;-69
2022/08/08 08:36:55;;;;;;;6.68;1.85;;;;;;;-144.47;35.48;53066.63;5066282;28;20104;-69
2022/08/08 08:39:21;;;;;;;12.38;1.92;;;;;;;-144.47;34.79;53026.91;5068507;28;20017;-68
2022/08/08 08:41:47;;;;;;;5.63;1.42;;;;;;;-144.47;34.38;53052.72;5068720;28;20627;-68
2022/08/08 08:44:14;;;;;;;5.47;1.95;;;;;;;-144.47;34.34;53022.94;5065783;28;20027;-67
2022/08/08 08:46:40;;;;;;;10.48;1.70;;;;;;;-144.47;34.12;53024.91;5056105;28;20490;-68
2022/08/08 08:49:06;;;;;;;13.00;1.73;;;;;;;-144.47;34.09;53062.66;5059038;28;20748;-70
2022/08/08 08:51:34;;;;;;;12.20;2.08;;;;;;;-144.47;34.20;53036.84;5060336;28;20727;-67
2022/08/08 08:54:02;;;;;;;4.20;1.67;;;;;;;-144.47;33.99;53020.94;5059252;28;20059;-68
2022/08/08 08:56:27;;;;;;;7.63;1.65;;;;;;;-144.47;33.96;53018.97;5061504;28;20039;-67
2022/08/08 08:58:55;;;;;;;6.20;1.50;;;;;;;-144.47;33.97;53048.75;5058159;28;20025;-67
2022/08/08 09:01:25;;;;;;;11.75;1.83;;;;;;;-144.47;33.57;53020.94;5057398;28;20111;-70
2022/08/08 09:03:54;;;;;;;5.35;1.65;;;;;;;-144.47;33.66;53040.81;5057459;28;20086;-70
2022/08/08 09:06:24;;;;;;;5.45;2.13;;;;;;;-144.47;33.54;53058.69;5058992;28;20027;-69
2022/08/08 09:08:58;;;;;;;5.15;1.50;;;;;;;-144.47;33.30;53050.75;5062151;28;20043;-68
2022/08/08 09:11:25;;;;;;;3.65;1.85;;;;;;;-144.47;33.39;53038.81;5062897;28;20812;-70
2022/08/08 09:13:51;;;;;;;9.32;1.90;;;;;;;-144.47;33.33;53028.88;5060955;28;20062;-69
2022/08/08 09:16:17;;;;;;;6.60;1.67;;;;;;;-144.47;32.65;53046.75;5061839;28;20028;-68
2022/08/08 09:18:44;;;;;;;3.75;1.70;;;;;;;-144.47;32.48;53018.97;5063784;28;20051;-68
2022/08/08 09:21:10;;;;;;;6.60;1.70;;;;;;;-144.47;32.02;53030.88;5063668;28;20031;-67
2022/08/08 09:23:36;;;;;;;7.22;1.80;;;;;;;-144.47;31.80;53016.97;5060606;28;20025;-67
2022/08/08 09:26:20;;;;;;;12.55;1.77;;;;;;;-144.47;32.52;53016.97;5062328;28;20032;-67
2022/08/08 09:28:45;;;;;;;4.70;1.77;;;;;;;-144.47;32.48;53018.97;5062906;28;20033;-67
2022/08/08 09:31:38;;;;;;;5.97;1.75;;;;;;;-144.47;32.25;53022.94;5063495;28;20039;-68
2022/08/08 09:34:06;;;;;;;4.05;1.60;;;;;;;-144.47;31.42;53036.84;5060983;28;20039;-69
2022/08/08 09:36:33;;;;;;;4.70;1.70;;;;;;;-144.47;30.73;53028.88;5042716;28;20058;-68
2022/08/08 09:39:02;;;;;;;3.35;1.50;;;;;;;-144.47;30.69;53020.94;5060317;28;20075;-68
2022/08/08 09:41:38;;;;;;;3.72;1.80;;;;;;;-144.47;30.69;52999.09;5060290;28;20705;-67
2022/08/08 09:44:19;;;;;;;3.85;1.50;;;;;;;-144.47;31.13;53009.03;5060454;28;20040;-68
2022/08/08 09:46:49;;;;;;;5.75;2.00;;;;;;;-144.47;31.08;53028.88;5059579;28;20016;-68
2022/08/08 09:49:18;;;;;;;5.25;1.60;;;;;;;-144.47;31.23;53026.91;5056420;28;20039;-70
2022/08/08 09:51:47;;;;;;;5.03;1.80;;;;;;;-144.47;30.24;52989.16;5059227;28;20033;-68
2022/08/08 09:54:17;;;;;;;4.95;1.80;;;;;;;-144.47;30.36;53024.91;5055518;28;20044;-69
2022/08/08 09:56:46;;;;;;;5.57;1.63;;;;;;;-144.47;30.08;53009.03;5060939;28;20460;-65
2022/08/08 09:59:24;;;;;;;7.25;1.40;;;;;;;-144.47;29.74;52999.09;5051867;28;20150;-71
2022/08/08 10:01:51;;;;;;;4.25;1.58;;;;;;;-144.47;29.92;53009.03;5063122;28;20063;-72
2022/08/08 10:04:21;;;;;;;5.75;1.95;;;;;;;-144.47;29.98;52991.16;5063608;28;20020;-72
2022/08/08 10:06:47;;;;;;;5.20;1.60;;;;;;;-144.47;29.97;52995.13;5069974;28;20477;-69
2022/08/08 10:09:13;;;;;;;12.23;3.38;;;;;;;-144.47;29.76;53024.91;5070391;28;20032;-72
2022/08/08 10:11:46;;;;;;;3.22;1.48;;;;;;;-144.47;29.94;52985.19;5071693;28;20028;-71
2022/08/08 10:14:12;;;;;;;4.93;1.77;;;;;;;-144.47;29.69;52981.22;5071973;28;20077;-69
2022/08/08 10:16:42;;;;;;;6.88;2.00;;;;;;;-144.47;29.69;52969.31;5084015;28;20554;-69
2022/08/08 10:19:10;;;;;;;4.55;1.80;;;;;;;-144.47;29.20;52989.16;5070755;28;20012;-69
2022/08/08 10:21:36;;;;;;;4.72;1.75;;;;;;;-144.47;28.62;52963.34;5071648;28;20429;-71
2022/08/08 10:24:08;;;;;;;7.63;1.33;;;;;;;-144.47;28.82;53015.00;5070522;28;20024;-70
2022/08/08 10:26:53;;;;;;;3.83;1.58;;;;;;;-144.47;28.76;52993.13;5063770;28;20021;-71
2022/08/08 10:29:32;;;;;;;6.28;1.58;;;;;;;-144.47;28.91;52975.25;5070936;28;20513;-70
2022/08/08 10:34:50;;;;;;;5.35;1.70;;;;;;;-144.47;28.91;52995.13;5065443;28;20031;-72
2022/08/08 10:37:26;;;;;;;6.88;1.40;;;;;;;-144.47;28.58;52979.22;5066732;28;20620;-68
2022/08/08 10:39:53;;;;;;;5.05;1.70;;;;;;;-144.47;28.66;52989.16;5071226;28;20155;-69
2022/08/08 10:42:20;;;;;;;8.50;2.55;;;;;;;-144.47;28.70;53003.06;5071203;28;20500;-71
2022/08/08 10:44:45;;;;;;;10.57;1.98;;;;;;;-144.47;28.95;53009.03;5071092;28;20016;-69
2022/08/08 10:47:19;;;;;;;9.85;2.53;;;;;;;-144.47;28.76;52979.22;5070085;28;20023;-71
2022/08/08 10:49:56;;;;;;;5.97;1.60;;;;;;;-144.47;28.78;52947.47;5071138;28;20032;-71
2022/08/08 10:52:37;;;;;;;5.88;2.55;;;;;;;-144.47;28.90;53015.00;5055460;28;20027;-69
2022/08/08 10:55:13;;;;;;;10.45;2.72;;;;;;;-144.47;28.79;53015.00;5066040;28;20138;-68
2022/08/08 10:57:46;;;;;;;7.45;1.92;;;;;;;-144.47;28.69;52981.22;5051175;28;20036;-71
2022/08/08 11:00:23;;;;;;;5.97;1.50;;;;;;;-144.47;28.38;52967.31;5070847;28;20025;-69
2022/08/08 11:02:49;;;;;;;5.90;1.70;;;;;;;-144.47;28.35;53042.78;5070721;28;20024;-73
2022/08/08 11:05:15;;;;;;;6.15;1.55;;;;;;;-144.47;28.55;52979.22;5071188;28;20727;-72
2022/08/08 11:07:42;;;;;;;7.22;1.88;;;;;;;-144.47;28.20;52979.22;5068747;28;20028;-69
2022/08/08 11:10:12;;;;;;;4.65;1.88;;;;;;;-144.47;28.17;52935.53;5052448;28;20442;-72
2022/08/08 11:12:46;;;;;;;3.72;1.60;;;;;;;-144.47;28.33;52979.22;5071963;28;20024;-67
2022/08/08 11:15:17;;;;;;;3.53;1.60;;;;;;;-144.47;28.14;52957.38;5071009;28;20040;-69
2022/08/08 11:17:44;;;;;;;3.92;1.55;;;;;;;-144.47;28.49;52967.31;5068774;28;20016;-68
2022/08/08 11:20:12;;;;;;;7.00;1.65;;;;;;;-144.47;28.33;52975.25;5069841;28;20021;-71
2022/08/08 11:22:39;;;;;;;5.13;1.77;;;;;;;-144.47;28.50;52973.28;5069734;28;20043;-68
2022/08/08 11:25:10;;;;;;;4.68;1.63;;;;;;;-144.47;28.52;52987.19;5070137;28;20031;-71
2022/08/08 11:27:37;;;;;;;5.45;1.40;;;;;;;-144.47;28.78;53007.03;5055901;28;20498;-73
2022/08/08 11:30:06;;;;;;;5.20;1.48;;;;;;;-144.47;28.46;52983.22;5070072;28;20015;-71
2022/08/08 11:32:36;;;;;;;3.17;1.35;;;;;;;-144.47;28.26;52967.31;5070331;28;20034;-70
2022/08/08 11:35:04;;;;;;;4.65;1.83;;;;;;;-144.47;28.10;52965.34;5069990;28;20047;-70
2022/08/08 11:37:31;;;;;;;4.25;1.75;;;;;;;-144.47;28.07;52973.28;5068689;28;20055;-69
2022/08/08 11:39:59;;;;;;;7.18;1.77;;;;;;;-144.47;27.98;52977.25;5090095;28;20035;-71
2022/08/08 11:42:25;;;;;;;4.75;1.52;;;;;;;-144.47;27.93;52977.25;5082122;28;20025;-67
2022/08/08 11:44:52;;;;;;;7.15;2.03;;;;;;;-144.47;27.73;52975.25;5069762;28;20024;-67
2022/08/08 11:47:17;;;;;;;5.70;1.80;;;;;;;-144.47;27.90;52967.31;5067370;28;20035;-71
2022/08/08 11:49:44;;;;;;;5.50;1.80;;;;;;;-144.47;27.71;52969.31;5064159;28;20389;-70
2022/08/08 11:52:11;;;;;;;5.32;1.80;;;;;;;-144.47;27.74;52929.59;5068954;28;20024;-70